Time;durP1;ratioP1;P1;durP2;ratioP2;P2;SDS_P1;SDS_P2;PMS_P1;PMS_P2;Temp;Humidity;BMP_temperature;BMP_pressure;BME280_temperature;BME280_humidity;BME280_pressure;Samples;Min_cycle;Max_cycle;Signal;HPM_P1;HPM_P2
2022/06/08 07:59:03;;;;;;;6.40;3.40;;;;;;;17.10;86.66;100556.91;5272251;28;20406;-74
2022/06/08 08:01:34;;;;;;;8.65;3.40;;;;;;;17.09;86.14;100560.88;5243143;28;20037;-76
2022/06/08 08:04:05;;;;;;;8.25;3.45;;;;;;;17.06;85.49;100561.56;5258805;28;20044;-76
2022/06/08 08:06:37;;;;;;;6.53;3.80;;;;;;;17.04;85.35;100561.91;5249539;28;20025;-74
2022/06/08 08:09:13;;;;;;;7.68;2.83;;;;;;;17.07;85.50;100561.22;5243025;28;20113;-73
2022/06/08 08:11:47;;;;;;;4.97;3.35;;;;;;;17.09;85.28;100563.69;5239615;28;20057;-71
2022/06/08 08:14:21;;;;;;;7.10;3.08;;;;;;;17.15;84.90;100560.34;5249941;28;20521;-72
2022/06/08 08:16:53;;;;;;;6.78;2.70;;;;;;;17.16;85.11;100558.38;5250258;28;20075;-71
2022/06/08 08:19:25;;;;;;;7.72;3.40;;;;;;;17.12;84.78;100558.22;5249977;28;20021;-70
2022/06/08 08:21:57;;;;;;;4.57;3.08;;;;;;;17.16;85.00;100555.56;5248523;28;20044;-71
2022/06/08 08:24:28;;;;;;;6.43;3.30;;;;;;;17.23;85.96;100555.00;5255482;28;20029;-71
2022/06/08 08:27:00;;;;;;;6.55;3.20;;;;;;;17.19;85.93;100557.69;5257446;28;20490;-71
2022/06/08 08:29:32;;;;;;;10.55;3.88;;;;;;;17.15;84.90;100563.16;5248887;28;20091;-71
2022/06/08 08:32:04;;;;;;;7.93;3.80;;;;;;;17.14;84.31;100561.50;5252348;28;20053;-70
2022/06/08 08:34:36;;;;;;;6.65;3.70;;;;;;;17.19;85.15;100557.69;5256778;28;20029;-70
2022/06/08 08:37:09;;;;;;;5.65;2.75;;;;;;;17.22;85.45;100557.00;5243501;28;20045;-69
2022/06/08 08:39:40;;;;;;;5.05;3.25;;;;;;;17.15;84.69;100560.34;5255419;28;20040;-71
2022/06/08 08:42:21;;;;;;;10.40;4.95;;;;;;;17.17;84.55;100554.41;5263040;28;20020;-71
2022/06/08 08:44:58;;;;;;;5.35;3.55;;;;;;;17.15;84.35;100556.72;5261313;28;20048;-71
2022/06/08 08:48:06;;;;;;;6.57;3.20;;;;;;;17.21;84.56;100555.38;5259182;28;20029;-72
2022/06/08 08:50:48;;;;;;;4.95;2.88;;;;;;;17.19;84.60;100554.06;5251498;28;20056;-71
2022/06/08 08:53:50;;;;;;;7.10;3.20;;;;;;;17.19;85.11;100557.69;5257385;28;20484;-71
2022/06/08 08:56:37;;;;;;;7.10;3.10;;;;;;;17.20;84.72;100556.50;5245911;28;20444;-71
2022/06/08 08:59:15;;;;;;;8.23;3.67;;;;;;;17.20;84.32;100553.72;5237848;28;20029;-71
2022/06/08 09:01:52;;;;;;;5.88;3.45;;;;;;;17.29;85.05;100560.06;5253647;28;20378;-71
2022/06/08 09:04:36;;;;;;;6.85;3.03;;;;;;;17.27;83.59;100559.59;5249523;28;20529;-70
2022/06/08 09:07:16;;;;;;;7.57;3.20;;;;;;;17.27;84.78;100570.81;5249601;28;20029;-71
2022/06/08 09:09:48;;;;;;;5.47;3.47;;;;;;;17.20;83.15;100567.72;5231248;28;20018;-71
2022/06/08 09:12:19;;;;;;;7.82;2.95;;;;;;;17.20;83.95;100564.09;5238014;28;20029;-73
2022/06/08 09:15:01;;;;;;;8.55;3.22;;;;;;;17.20;85.17;100564.91;5238068;28;20024;-70
2022/06/08 09:17:38;;;;;;;6.13;3.08;;;;;;;17.20;85.01;100562.13;5238978;28;20021;-70
2022/06/08 09:20:36;;;;;;;7.93;3.75;;;;;;;17.16;85.80;100564.78;5243207;28;20112;-71
2022/06/08 09:23:38;;;;;;;9.35;3.00;;;;;;;17.17;86.90;100560.00;5225631;28;20025;-73
2022/06/08 09:26:28;;;;;;;5.47;3.28;;;;;;;17.18;87.62;100558.84;5240148;28;20022;-70
2022/06/08 09:29:20;;;;;;;7.18;4.78;;;;;;;17.20;88.74;100562.13;5238653;28;20068;-73
2022/06/08 09:31:52;;;;;;;5.93;3.28;;;;;;;17.15;88.82;100559.50;5237446;28;20068;-73
2022/06/08 09:34:23;;;;;;;7.43;3.45;;;;;;;17.09;88.73;100558.91;5236764;28;20194;-73
2022/06/08 09:37:04;;;;;;;9.25;4.28;;;;;;;17.05;88.06;100562.72;5231901;28;20684;-72
2022/06/08 09:39:36;;;;;;;5.43;3.40;;;;;;;17.08;88.77;100567.66;5239213;28;20025;-72
2022/06/08 09:42:34;;;;;;;9.77;5.63;;;;;;;17.05;88.41;100562.72;5233331;28;20082;-73
2022/06/08 09:45:22;;;;;;;8.55;3.75;;;;;;;16.96;88.94;100568.41;5235306;28;20448;-72
2022/06/08 09:51:30;;;;;;;5.72;2.58;;;;;;;16.85;88.86;100564.34;5241110;28;20420;-73
2022/06/08 09:54:33;;;;;;;8.85;3.45;;;;;;;16.87;88.92;100568.47;5240338;28;20037;-73
2022/06/08 09:57:08;;;;;;;8.75;2.92;;;;;;;16.79;89.05;100572.09;5239189;28;20527;-70
2022/06/08 10:00:11;;;;;;;7.25;3.78;;;;;;;16.74;90.42;100578.72;5234359;28;20029;-70
2022/06/08 10:03:19;;;;;;;8.43;3.30;;;;;;;16.75;91.61;100571.13;5239703;28;20125;-72
2022/06/08 10:06:08;;;;;;;7.82;3.22;;;;;;;16.75;92.36;100573.94;5236929;28;20029;-69
2022/06/08 10:08:44;;;;;;;10.27;4.47;;;;;;;16.77;93.06;100573.56;5231670;28;20471;-73
2022/06/08 10:11:46;;;;;;;8.40;4.10;;;;;;;16.82;95.08;100577.06;5231347;28;20175;-70
2022/06/08 10:14:39;;;;;;;5.80;3.28;;;;;;;16.75;95.26;100568.34;5238077;28;20041;-70
2022/06/08 10:17:19;;;;;;;8.77;4.18;;;;;;;16.71;94.73;100564.56;5233091;28;20033;-70
2022/06/08 10:20:12;;;;;;;8.10;3.72;;;;;;;16.77;95.26;100568.81;5235420;28;20029;-70
2022/06/08 10:22:47;;;;;;;8.57;3.33;;;;;;;16.78;95.35;100564.06;5225954;28;20036;-70
2022/06/08 10:25:26;;;;;;;5.80;3.28;;;;;;;16.59;95.69;100578.44;5237979;28;20025;-71
2022/06/08 10:28:05;;;;;;;6.45;4.07;;;;;;;16.64;95.94;100570.69;5228273;28;20060;-70
2022/06/08 10:31:02;;;;;;;6.68;3.60;;;;;;;16.68;96.17;100568.03;5231342;28;20144;-70
2022/06/08 10:34:00;;;;;;;5.35;3.88;;;;;;;16.67;96.52;100574.81;5230853;28;20542;-71
2022/06/08 10:36:33;;;;;;;9.70;4.18;;;;;;;16.65;96.98;100572.31;5237297;28;20034;-71
2022/06/08 10:39:08;;;;;;;6.20;3.90;;;;;;;16.66;96.26;100573.16;5240729;28;20112;-70
2022/06/08 10:44:58;;;;;;;8.45;3.75;;;;;;;16.59;95.68;100567.25;5248945;28;20512;-70
2022/06/08 10:47:37;;;;;;;8.63;3.93;;;;;;;16.68;96.41;100562.44;5240885;28;20027;-70
2022/06/08 10:50:08;;;;;;;7.38;4.10;;;;;;;16.66;95.73;100561.94;5232358;28;20623;-79
2022/06/08 10:52:47;;;;;;;5.45;3.47;;;;;;;16.74;96.57;100564.72;5240877;28;20037;-78
2022/06/08 10:55:18;;;;;;;6.22;3.33;;;;;;;16.69;95.70;100555.66;5233484;28;20056;-79
2022/06/08 10:57:49;;;;;;;5.47;2.97;;;;;;;16.61;94.81;100568.56;5238086;28;20092;-79
2022/06/08 11:00:26;;;;;;;7.63;3.35;;;;;;;16.53;94.75;100563.81;5233628;28;20030;-79
2022/06/08 11:02:58;;;;;;;7.10;3.50;;;;;;;16.61;95.09;100553.75;5226673;28;20033;-80
2022/06/08 11:05:45;;;;;;;7.35;2.85;;;;;;;16.56;93.18;100554.75;5236855;28;20087;-80
2022/06/08 11:08:21;;;;;;;5.68;3.38;;;;;;;16.56;94.63;100551.94;5232568;28;20112;-79
2022/06/08 11:10:55;;;;;;;8.82;3.40;;;;;;;16.59;94.93;100544.84;5241568;28;20025;-80
2022/06/08 11:13:35;;;;;;;7.65;3.30;;;;;;;16.62;94.82;100547.00;5222203;28;20437;-80
2022/06/08 11:16:27;;;;;;;7.70;3.38;;;;;;;16.64;94.13;100537.09;5229004;28;20059;-80
2022/06/08 11:19:10;;;;;;;7.88;2.83;;;;;;;16.51;93.43;100536.19;5226519;28;20507;-82
2022/06/08 11:21:50;;;;;;;7.35;3.97;;;;;;;16.54;94.12;100531.91;5236466;28;20120;-80
2022/06/08 11:24:24;;;;;;;7.47;3.67;;;;;;;16.56;94.56;100528.75;5230083;28;20037;-80
2022/06/08 11:27:11;;;;;;;5.97;3.40;;;;;;;16.67;95.62;100527.22;5227708;28;20477;-79
2022/06/08 11:29:46;;;;;;;6.65;3.30;;;;;;;16.49;94.52;100527.31;5231815;28;20026;-81
2022/06/08 11:32:52;;;;;;;5.53;2.92;;;;;;;16.56;94.96;100525.94;5224988;28;20053;-80
2022/06/08 11:35:40;;;;;;;5.60;3.35;;;;;;;16.60;96.71;100519.34;5230334;28;20404;-70
2022/06/08 11:38:34;;;;;;;7.38;3.13;;;;;;;16.61;96.29;100508.94;5234857;28;20464;-72
2022/06/08 11:41:32;;;;;;;6.80;3.20;;;;;;;16.64;95.76;100508.25;5230202;28;20489;-70
2022/06/08 11:44:17;;;;;;;5.72;3.00;;;;;;;16.56;95.64;100506.34;5235357;28;20447;-71
2022/06/08 11:47:04;;;;;;;7.68;3.22;;;;;;;16.54;95.47;100498.31;5229061;28;20029;-72
2022/06/08 11:49:40;;;;;;;5.57;3.10;;;;;;;16.45;95.54;100503.13;5221271;28;20532;-71
2022/06/08 11:52:35;;;;;;;8.57;3.50;;;;;;;16.57;95.15;100499.59;5228356;28;20026;-72
2022/06/08 11:55:19;;;;;;;11.05;3.50;;;;;;;16.52;95.68;100501.44;5224227;28;20025;-73
2022/06/08 11:58:05;;;;;;;4.50;2.63;;;;;;;16.50;94.85;100489.75;5223520;28;20041;-72
2022/06/08 12:00:42;;;;;;;6.90;5.18;;;;;;;16.49;95.01;100485.31;5235453;28;20116;-73
2022/06/08 12:03:16;;;;;;;10.82;3.75;;;;;;;16.51;94.56;100493.34;5225485;28;20029;-73
2022/06/08 12:05:51;;;;;;;6.55;3.30;;;;;;;16.51;94.62;100499.78;5224245;28;20393;-73
2022/06/08 12:08:40;;;;;;;5.88;3.20;;;;;;;16.35;94.97;100493.13;5229064;28;20033;-73
2022/06/08 12:11:15;;;;;;;5.38;2.65;;;;;;;16.35;94.51;100490.31;5231862;28;20052;-74
2022/06/08 12:14:00;;;;;;;5.10;2.72;;;;;;;16.34;95.65;100487.88;5234198;28;20036;-73
2022/06/08 12:16:35;;;;;;;4.88;3.08;;;;;;;16.22;94.48;100481.00;5230733;28;20026;-72
2022/06/08 12:19:43;;;;;;;4.00;2.80;;;;;;;16.30;95.72;100482.94;5239348;28;20087;-78
2022/06/08 12:22:39;;;;;;;5.25;2.78;;;;;;;16.33;95.65;100480.63;5239368;28;20026;-79
2022/06/08 12:33:39;;;;;;;22.83;19.17;;;;;;;16.23;96.32;100476.22;5099537;29;20044;-79
2022/06/08 12:36:27;;;;;;;4.13;3.05;;;;;;;16.32;96.82;100474.22;5158663;28;20533;-79
2022/06/08 12:39:35;;;;;;;7.88;2.97;;;;;;;16.19;96.77;100467.69;5235918;28;20033;-79
2022/06/08 12:42:27;;;;;;;4.88;3.58;;;;;;;16.29;97.80;100469.28;5238463;28;20061;-76
2022/06/08 12:45:46;;;;;;;11.95;5.78;;;;;;;16.32;97.35;100462.22;5223295;28;20405;-77
2022/06/08 12:49:04;;;;;;;5.93;3.75;;;;;;;16.45;96.86;100455.53;5225393;28;20508;-77
2022/06/08 12:51:42;;;;;;;8.43;4.40;;;;;;;16.38;96.00;100456.06;5222990;28;20397;-76
2022/06/08 12:57:33;;;;;;;6.18;3.00;;;;;;;16.33;95.95;100445.06;5233080;28;20072;-80
2022/06/08 13:00:07;;;;;;;4.45;3.22;;;;;;;16.30;96.48;100449.34;5237889;28;20025;-79
2022/06/08 13:02:40;;;;;;;6.13;3.13;;;;;;;16.36;96.87;100450.00;5243345;28;20710;-79
2022/06/08 13:05:24;;;;;;;6.72;3.00;;;;;;;16.42;97.18;100451.44;5253225;28;20378;-79
2022/06/08 13:07:56;;;;;;;4.50;2.55;;;;;;;16.39;97.13;100452.13;5236374;28;20072;-70
2022/06/08 13:10:31;;;;;;;6.95;3.38;;;;;;;16.34;97.12;100446.72;5235588;28;20420;-72
2022/06/08 13:13:03;;;;;;;5.13;2.72;;;;;;;16.35;96.55;100437.16;5241209;28;20052;-72
2022/06/08 13:15:39;;;;;;;5.65;2.72;;;;;;;16.35;97.47;100450.34;5230845;28;20030;-71
2022/06/08 13:18:16;;;;;;;3.70;2.78;;;;;;;16.34;97.98;100445.91;5233081;28;20569;-71
2022/06/08 13:20:47;;;;;;;4.97;2.35;;;;;;;16.27;97.40;100443.63;5243437;28;20431;-72
2022/06/08 13:23:19;;;;;;;2.97;2.55;;;;;;;16.28;96.84;100439.66;5240669;28;20025;-71
2022/06/08 13:25:54;;;;;;;4.70;2.90;;;;;;;16.48;97.13;100450.06;5237528;28;20531;-72
2022/06/08 13:28:29;;;;;;;6.93;2.90;;;;;;;16.39;96.59;100443.72;5240743;28;20032;-71
2022/06/08 13:31:04;;;;;;;3.78;3.08;;;;;;;16.34;97.57;100446.72;5234085;28;20465;-71
2022/06/08 13:36:46;;;;;;;4.53;2.65;;;;;;;16.44;97.77;100442.72;5239583;28;20021;-71
2022/06/08 13:39:31;;;;;;;3.20;2.58;;;;;;;16.44;98.22;100446.31;5239184;28;20116;-72
2022/06/08 13:42:06;;;;;;;4.67;2.90;;;;;;;16.47;98.02;100442.84;5233881;28;20026;-72
2022/06/08 13:44:41;;;;;;;3.33;2.30;;;;;;;16.43;98.29;100446.66;5241602;28;20017;-71
2022/06/08 13:47:15;;;;;;;;;;;;;;;16.55;97.46;100443.13;5243145;28;20029;-70
2022/06/08 13:49:55;;;;;;;5.15;2.38;;;;;;;16.49;96.80;100445.31;5241746;28;19952;-71
2022/06/08 13:52:30;;;;;;;5.43;2.75;;;;;;;16.48;97.00;100444.47;5242368;28;20021;-71
2022/06/08 13:55:11;;;;;;;15.77;14.32;;;;;;;16.56;97.48;100445.56;5240066;28;20028;-71
2022/06/08 13:57:43;;;;;;;4.13;3.15;;;;;;;16.51;97.40;100441.03;5230560;28;20053;-71
2022/06/08 14:00:16;;;;;;;3.20;2.08;;;;;;;16.63;96.67;100440.25;5241746;28;20023;-71
2022/06/08 14:02:59;;;;;;;3.50;2.08;;;;;;;16.67;95.88;100446.81;5238629;28;20041;-71
2022/06/08 14:14:18;;;;;;;3.63;2.50;;;;;;;16.52;98.04;100445.44;5238512;28;20053;-72
2022/06/08 14:16:53;;;;;;;3.42;2.50;;;;;;;16.62;97.02;100440.63;5236523;28;20068;-71
2022/06/08 14:19:35;;;;;;;4.18;3.78;;;;;;;16.62;97.40;100437.81;5242360;28;20068;-71
2022/06/08 14:22:10;;;;;;;3.45;3.13;;;;;;;16.44;97.71;100443.53;5242033;28;20404;-71
2022/06/08 14:24:49;;;;;;;4.10;3.03;;;;;;;16.56;98.89;100441.97;5241508;28;20117;-72
2022/06/08 14:27:21;;;;;;;5.15;3.42;;;;;;;16.58;97.40;100436.84;5241361;28;20043;-71
2022/06/08 14:29:52;;;;;;;3.22;2.92;;;;;;;16.61;97.13;100439.78;5236765;28;20029;-72
2022/06/08 14:32:39;;;;;;;5.30;3.80;;;;;;;16.57;98.25;100438.03;5232971;28;20041;-72
2022/06/08 14:35:21;;;;;;;4.70;4.28;;;;;;;16.39;98.58;100440.94;5238476;28;20061;-71
2022/06/08 14:37:53;;;;;;;5.65;5.15;;;;;;;16.51;99.66;100438.22;5233959;28;20544;-71
2022/06/08 14:40:34;;;;;;;7.35;5.00;;;;;;;16.38;100.00;100442.06;5240186;28;20033;-71
2022/06/08 14:43:06;;;;;;;4.63;4.22;;;;;;;16.46;100.00;100440.38;5233151;28;20032;-70
2022/06/08 14:45:39;;;;;;;6.68;6.07;;;;;;;16.61;99.21;100438.97;5240634;28;20037;-70
2022/06/08 14:48:18;;;;;;;5.82;5.07;;;;;;;16.46;98.82;100446.81;5233474;28;20030;-70
2022/06/08 14:50:51;;;;;;;6.15;5.65;;;;;;;16.47;99.78;100448.44;5238822;28;20044;-70
2022/06/08 14:53:24;;;;;;;6.50;6.00;;;;;;;16.44;100.00;100449.13;5235546;28;20120;-70
2022/06/08 14:58:47;;;;;;;5.85;5.45;;;;;;;16.40;99.04;100444.53;5232220;28;20492;-71
2022/06/08 15:01:27;;;;;;;7.05;6.45;;;;;;;16.32;100.00;100446.22;5228280;28;20385;-70
2022/06/08 15:03:59;;;;;;;6.60;6.05;;;;;;;16.21;99.40;100447.78;5228334;28;20049;-71
2022/06/08 15:06:33;;;;;;;6.40;5.80;;;;;;;16.41;99.74;100449.81;5240709;28;20350;-69
2022/06/08 15:09:05;;;;;;;7.13;6.40;;;;;;;16.29;99.39;100452.50;5239670;28;20362;-69
2022/06/08 15:14:37;;;;;;;6.97;6.38;;;;;;;16.33;99.08;100447.84;5233160;28;20037;-69
2022/06/08 15:17:31;;;;;;;8.05;7.30;;;;;;;16.44;98.73;100456.72;5238482;28;20112;-70
2022/06/08 15:20:32;;;;;;;7.78;7.03;;;;;;;16.40;99.17;100448.16;5235979;28;20022;-69
2022/06/08 15:23:03;;;;;;;6.78;6.25;;;;;;;16.40;98.33;100459.34;5237639;28;20047;-70
2022/06/08 15:25:43;;;;;;;7.38;6.72;;;;;;;16.45;98.80;100456.34;5239913;28;20025;-70
2022/06/08 15:28:22;;;;;;;7.30;6.60;;;;;;;16.43;98.32;100458.66;5239295;28;20042;-72
2022/06/08 15:30:53;;;;;;;6.28;5.65;;;;;;;16.42;97.59;100457.03;5240865;28;20380;-70
2022/06/08 15:33:28;;;;;;;6.65;5.85;;;;;;;16.44;98.05;100451.91;5230932;28;20025;-71
2022/06/08 15:36:06;;;;;;;6.30;5.70;;;;;;;16.41;97.87;100458.19;5235033;28;20033;-71
2022/06/08 15:39:11;;;;;;;9.52;5.40;;;;;;;16.47;97.14;100456.84;5236692;28;20392;-71
2022/06/08 15:41:46;;;;;;;6.30;4.57;;;;;;;16.37;96.88;100454.44;5219909;28;20068;-71
2022/06/08 15:44:19;;;;;;;7.13;5.35;;;;;;;16.32;96.77;100462.22;5232106;28;20033;-71
2022/06/08 15:46:57;;;;;;;6.80;5.30;;;;;;;16.27;97.37;100461.22;5229038;28;20497;-70
2022/06/08 15:49:30;;;;;;;9.52;5.32;;;;;;;16.26;97.57;100458.78;5236684;28;20022;-72
2022/06/08 15:52:12;;;;;;;7.50;4.82;;;;;;;16.22;98.07;100466.19;5240434;28;20425;-78
2022/06/08 15:54:48;;;;;;;10.82;5.45;;;;;;;16.32;98.29;100465.00;5234170;28;20041;-68
2022/06/08 15:57:19;;;;;;;7.18;5.03;;;;;;;16.22;98.50;100474.59;5238158;28;20041;-69
2022/06/08 16:00:10;;;;;;;7.70;5.65;;;;;;;16.33;98.85;100470.25;5239206;28;20376;-71
2022/06/08 16:02:41;;;;;;;7.43;5.65;;;;;;;16.32;98.09;100473.41;5239666;28;20116;-74
2022/06/08 16:05:12;;;;;;;9.25;6.03;;;;;;;16.34;98.59;100476.69;5239564;28;20104;-75
2022/06/08 16:07:45;;;;;;;7.88;6.03;;;;;;;16.24;98.22;100477.88;5239037;28;20044;-74
2022/06/08 16:10:17;;;;;;;8.77;6.25;;;;;;;16.26;98.45;100476.38;5236209;28;20400;-74
2022/06/08 16:12:48;;;;;;;11.43;6.30;;;;;;;16.29;99.05;100474.91;5238491;28;20030;-75
2022/06/08 16:15:20;;;;;;;8.40;5.82;;;;;;;16.28;99.22;100474.09;5239774;28;20113;-74
2022/06/08 16:17:52;;;;;;;8.82;6.28;;;;;;;16.26;99.60;100472.78;5237717;28;20037;-73
2022/06/08 16:20:27;;;;;;;8.55;6.38;;;;;;;16.28;99.75;100476.03;5243316;28;20036;-74
2022/06/08 16:22:58;;;;;;;11.40;6.60;;;;;;;16.20;99.82;100465.72;5242693;28;20117;-75
2022/06/08 16:25:31;;;;;;;8.05;6.53;;;;;;;16.24;100.00;100466.69;5234620;28;20532;-75
2022/06/08 16:28:03;;;;;;;9.32;6.53;;;;;;;16.24;100.00;100461.09;5240084;28;20025;-75
2022/06/08 16:30:36;;;;;;;10.57;6.70;;;;;;;16.19;100.00;100473.28;5242598;28;20382;-74
2022/06/08 16:33:09;;;;;;;13.55;7.75;;;;;;;16.25;100.00;100471.94;5242795;28;20034;-74
2022/06/08 16:35:40;;;;;;;10.95;6.70;;;;;;;16.18;100.00;100457.69;5243285;28;20521;-74
2022/06/08 16:38:11;;;;;;;12.38;7.57;;;;;;;16.15;100.00;100468.69;5243277;28;20132;-74
2022/06/08 16:40:45;;;;;;;12.43;7.43;;;;;;;16.24;100.00;100469.50;5243981;28;20028;-74
2022/06/08 16:43:20;;;;;;;13.82;6.93;;;;;;;16.27;100.00;100480.00;5243250;28;20033;-74
2022/06/08 16:45:52;;;;;;;12.77;6.78;;;;;;;16.22;100.00;100478.22;5242964;28;20108;-75
2022/06/08 16:48:23;;;;;;;11.88;7.70;;;;;;;16.18;99.86;100479.22;5243760;28;20549;-75
2022/06/08 16:50:56;;;;;;;15.13;7.70;;;;;;;16.20;99.92;100485.28;5243840;28;20507;-74
2022/06/08 16:53:28;;;;;;;15.93;6.90;;;;;;;16.20;100.00;100483.31;5239402;28;20032;-74
2022/06/08 16:55:59;;;;;;;11.75;8.20;;;;;;;16.20;100.00;100485.28;5242725;28;20465;-74
2022/06/08 17:01:24;;;;;;;14.77;8.30;;;;;;;16.18;100.00;100490.41;5241813;28;20425;-74
2022/06/08 17:03:55;;;;;;;10.95;7.68;;;;;;;16.15;100.00;100491.06;5240698;28;20030;-74
2022/06/08 17:06:27;;;;;;;12.73;7.50;;;;;;;16.21;100.00;100495.34;5242991;28;20468;-74
2022/06/08 17:08:58;;;;;;;13.88;8.40;;;;;;;16.23;100.00;100490.22;5243313;28;20037;-74
2022/06/08 17:11:38;;;;;;;12.35;8.18;;;;;;;16.28;100.00;100492.81;5250312;28;20033;-77
2022/06/08 17:14:10;;;;;;;13.82;8.10;;;;;;;16.26;100.00;100487.59;5241641;28;20052;-78
2022/06/08 17:16:42;;;;;;;18.13;8.63;;;;;;;16.20;100.00;100488.09;5243338;28;20026;-79
2022/06/08 17:19:14;;;;;;;11.57;8.25;;;;;;;16.28;100.00;100493.66;5239951;28;20052;-79
2022/06/08 17:21:48;;;;;;;10.90;8.13;;;;;;;16.24;100.00;100501.09;5237814;28;20030;-78
2022/06/08 17:24:19;;;;;;;12.48;7.50;;;;;;;16.28;100.00;100493.66;5242540;28;20029;-78
2022/06/08 17:26:52;;;;;;;13.07;7.40;;;;;;;16.31;100.00;100500.56;5243036;28;20022;-78
2022/06/08 17:29:23;;;;;;;13.13;7.82;;;;;;;16.34;100.00;100499.06;5239155;28;20022;-75
